sensor_id;sensor_type;location;lat;lon;timestamp;P1;durP1;ratioP1;P2;durP2;ratioP2
40623;SDS011;26325;48.594;11.650;2022-07-23T00:01:08;12.65;;;11.40;;
40623;SDS011;26325;48.594;11.650;2022-07-23T00:03:34;12.88;;;11.85;;
40623;SDS011;26325;48.594;11.650;2022-07-23T00:06:15;12.60;;;11.60;;
40623;SDS011;26325;48.594;11.650;2022-07-23T00:08:41;12.27;;;11.27;;
40623;SDS011;26325;48.594;11.650;2022-07-23T00:11:07;12.05;;;11.05;;
40623;SDS011;26325;48.594;11.650;2022-07-23T00:16:01;11.32;;;10.32;;
40623;SDS011;26325;48.594;11.650;2022-07-23T00:18:26;10.85;;;10.05;;
40623;SDS011;26325;48.594;11.650;2022-07-23T00:20:52;11.30;;;10.50;;
40623;SDS011;26325;48.594;11.650;2022-07-23T00:23:18;11.32;;;10.43;;
40623;SDS011;26325;48.594;11.650;2022-07-23T00:25:44;10.55;;;9.73;;
40623;SDS011;26325;48.594;11.650;2022-07-23T00:28:13;10.88;;;9.98;;
40623;SDS011;26325;48.594;11.650;2022-07-23T00:30:41;11.15;;;10.35;;
40623;SDS011;26325;48.594;11.650;2022-07-23T00:33:07;10.73;;;9.95;;
40623;SDS011;26325;48.594;11.650;2022-07-23T00:35:35;12.80;;;11.70;;
40623;SDS011;26325;48.594;11.650;2022-07-23T00:38:03;11.05;;;10.15;;
40623;SDS011;26325;48.594;11.650;2022-07-23T00:40:33;11.10;;;10.10;;
40623;SDS011;26325;48.594;11.650;2022-07-23T00:42:59;11.07;;;10.18;;
40623;SDS011;26325;48.594;11.650;2022-07-23T00:45:27;11.88;;;10.85;;
40623;SDS011;26325;48.594;11.650;2022-07-23T00:47:54;11.48;;;10.45;;
40623;SDS011;26325;48.594;11.650;2022-07-23T00:50:19;10.77;;;9.90;;
40623;SDS011;26325;48.594;11.650;2022-07-23T00:52:47;11.38;;;10.48;;
40623;SDS011;26325;48.594;11.650;2022-07-23T00:55:13;11.10;;;10.20;;
40623;SDS011;26325;48.594;11.650;2022-07-23T00:57:40;11.98;;;10.98;;
40623;SDS011;26325;48.594;11.650;2022-07-23T01:00:09;11.80;;;10.93;;
40623;SDS011;26325;48.594;11.650;2022-07-23T01:02:37;11.57;;;10.70;;
40623;SDS011;26325;48.594;11.650;2022-07-23T01:05:03;13.10;;;11.90;;
40623;SDS011;26325;48.594;11.650;2022-07-23T01:07:29;12.07;;;11.18;;
40623;SDS011;26325;48.594;11.650;2022-07-23T01:09:55;12.25;;;11.25;;
40623;SDS011;26325;48.594;11.650;2022-07-23T01:12:27;11.77;;;10.60;;
40623;SDS011;26325;48.594;11.650;2022-07-23T01:14:57;11.93;;;11.02;;
40623;SDS011;26325;48.594;11.650;2022-07-23T01:17:25;12.43;;;11.32;;
40623;SDS011;26325;48.594;11.650;2022-07-23T01:19:51;11.65;;;10.65;;
40623;SDS011;26325;48.594;11.650;2022-07-23T01:22:20;12.65;;;11.55;;
40623;SDS011;26325;48.594;11.650;2022-07-23T01:24:46;17.75;;;13.25;;
40623;SDS011;26325;48.594;11.650;2022-07-23T01:29:42;30.17;;;17.75;;
40623;SDS011;26325;48.594;11.650;2022-07-23T01:34:36;38.92;;;22.75;;
40623;SDS011;26325;48.594;11.650;2022-07-23T01:46:15;46.55;;;33.78;;
40623;SDS011;26325;48.594;11.650;2022-07-23T01:48:41;62.90;;;38.00;;
40623;SDS011;26325;48.594;11.650;2022-07-23T01:51:59;37.08;;;31.10;;
40623;SDS011;26325;48.594;11.650;2022-07-23T01:55:05;60.85;;;38.40;;
40623;SDS011;26325;48.594;11.650;2022-07-23T01:57:32;55.60;;;38.00;;
40623;SDS011;26325;48.594;11.650;2022-07-23T02:02:25;41.28;;;30.17;;
40623;SDS011;26325;48.594;11.650;2022-07-23T02:07:16;24.30;;;21.13;;
40623;SDS011;26325;48.594;11.650;2022-07-23T02:12:10;22.58;;;20.27;;
40623;SDS011;26325;48.594;11.650;2022-07-23T02:14:38;24.92;;;22.23;;
40623;SDS011;26325;48.594;11.650;2022-07-23T02:19:30;21.05;;;18.95;;
40623;SDS011;26325;48.594;11.650;2022-07-23T02:24:24;22.42;;;20.17;;
40623;SDS011;26325;48.594;11.650;2022-07-23T02:26:52;24.98;;;22.30;;
40623;SDS011;26325;48.594;11.650;2022-07-23T02:31:43;27.40;;;24.38;;
40623;SDS011;26325;48.594;11.650;2022-07-23T02:36:37;36.80;;;28.13;;
40623;SDS011;26325;48.594;11.650;2022-07-23T02:39:03;37.17;;;30.02;;
40623;SDS011;26325;48.594;11.650;2022-07-23T02:43:55;44.10;;;30.65;;
40623;SDS011;26325;48.594;11.650;2022-07-23T02:48:50;33.53;;;27.05;;
40623;SDS011;26325;48.594;11.650;2022-07-23T02:51:18;30.13;;;24.25;;
40623;SDS011;26325;48.594;11.650;2022-07-23T02:56:09;21.13;;;18.83;;
40623;SDS011;26325;48.594;11.650;2022-07-23T03:01:00;28.35;;;23.48;;
40623;SDS011;26325;48.594;11.650;2022-07-23T03:05:56;35.25;;;26.02;;
40623;SDS011;26325;48.594;11.650;2022-07-23T03:08:22;45.05;;;29.30;;
40623;SDS011;26325;48.594;11.650;2022-07-23T03:13:13;31.67;;;24.77;;
40623;SDS011;26325;48.594;11.650;2022-07-23T03:18:04;39.97;;;25.92;;
40623;SDS011;26325;48.594;11.650;2022-07-23T03:20:32;32.80;;;25.58;;
40623;SDS011;26325;48.594;11.650;2022-07-23T03:25:26;32.45;;;25.25;;
40623;SDS011;26325;48.594;11.650;2022-07-23T03:27:51;32.45;;;26.33;;
40623;SDS011;26325;48.594;11.650;2022-07-23T03:32:45;33.33;;;26.23;;
40623;SDS011;26325;48.594;11.650;2022-07-23T03:37:36;45.97;;;27.40;;
40623;SDS011;26325;48.594;11.650;2022-07-23T03:42:28;58.85;;;32.45;;
40623;SDS011;26325;48.594;11.650;2022-07-23T03:47:19;48.85;;;29.02;;
40623;SDS011;26325;48.594;11.650;2022-07-23T03:49:47;37.30;;;24.90;;
40623;SDS011;26325;48.594;11.650;2022-07-23T03:52:14;30.58;;;24.23;;
40623;SDS011;26325;48.594;11.650;2022-07-23T03:57:05;43.38;;;27.80;;
40623;SDS011;26325;48.594;11.650;2022-07-23T04:01:56;34.38;;;25.90;;
40623;SDS011;26325;48.594;11.650;2022-07-23T04:06:47;47.28;;;28.90;;
40623;SDS011;26325;48.594;11.650;2022-07-23T04:11:38;33.20;;;25.27;;
40623;SDS011;26325;48.594;11.650;2022-07-23T04:16:29;47.67;;;28.55;;
40623;SDS011;26325;48.594;11.650;2022-07-23T04:18:56;34.72;;;26.40;;
40623;SDS011;26325;48.594;11.650;2022-07-23T04:21:23;41.55;;;27.33;;
40623;SDS011;26325;48.594;11.650;2022-07-23T04:23:49;49.83;;;28.52;;
40623;SDS011;26325;48.594;11.650;2022-07-23T04:26:17;48.30;;;27.90;;
40623;SDS011;26325;48.594;11.650;2022-07-23T04:31:08;31.88;;;23.55;;
40623;SDS011;26325;48.594;11.650;2022-07-23T04:35:59;27.67;;;23.10;;
40623;SDS011;26325;48.594;11.650;2022-07-23T04:40:53;41.80;;;27.52;;
40623;SDS011;26325;48.594;11.650;2022-07-23T04:45:49;27.02;;;23.05;;
40623;SDS011;26325;48.594;11.650;2022-07-23T04:48:15;29.58;;;22.67;;
40623;SDS011;26325;48.594;11.650;2022-07-23T04:53:07;31.92;;;22.60;;
40623;SDS011;26325;48.594;11.650;2022-07-23T04:55:38;29.10;;;21.58;;
40623;SDS011;26325;48.594;11.650;2022-07-23T05:00:29;23.00;;;18.65;;
40623;SDS011;26325;48.594;11.650;2022-07-23T05:05:20;29.13;;;20.35;;
40623;SDS011;26325;48.594;11.650;2022-07-23T05:07:48;26.70;;;20.27;;
40623;SDS011;26325;48.594;11.650;2022-07-23T05:12:39;30.25;;;20.77;;
40623;SDS011;26325;48.594;11.650;2022-07-23T05:17:32;23.75;;;19.55;;
40623;SDS011;26325;48.594;11.650;2022-07-23T05:19:58;23.83;;;20.05;;
40623;SDS011;26325;48.594;11.650;2022-07-23T05:24:49;30.60;;;21.60;;
40623;SDS011;26325;48.594;11.650;2022-07-23T05:29:40;27.73;;;21.17;;
40623;SDS011;26325;48.594;11.650;2022-07-23T05:32:06;21.88;;;18.33;;
40623;SDS011;26325;48.594;11.650;2022-07-23T05:36:59;28.35;;;19.30;;
40623;SDS011;26325;48.594;11.650;2022-07-23T05:39:24;24.63;;;18.92;;
40623;SDS011;26325;48.594;11.650;2022-07-23T05:44:16;21.60;;;19.35;;
40623;SDS011;26325;48.594;11.650;2022-07-23T05:49:09;32.30;;;22.63;;
40623;SDS011;26325;48.594;11.650;2022-07-23T05:54:00;25.42;;;20.02;;
40623;SDS011;26325;48.594;11.650;2022-07-23T05:58:56;26.45;;;20.50;;
40623;SDS011;26325;48.594;11.650;2022-07-23T06:03:47;26.73;;;20.40;;
40623;SDS011;26325;48.594;11.650;2022-07-23T06:08:38;26.20;;;20.83;;
40623;SDS011;26325;48.594;11.650;2022-07-23T06:13:30;26.92;;;19.92;;
40623;SDS011;26325;48.594;11.650;2022-07-23T06:18:23;23.80;;;20.52;;
40623;SDS011;26325;48.594;11.650;2022-07-23T06:23:14;26.17;;;20.25;;
40623;SDS011;26325;48.594;11.650;2022-07-23T06:25:40;20.65;;;17.88;;
40623;SDS011;26325;48.594;11.650;2022-07-23T06:30:31;22.88;;;19.23;;
40623;SDS011;26325;48.594;11.650;2022-07-23T06:35:22;21.08;;;18.17;;
40623;SDS011;26325;48.594;11.650;2022-07-23T06:37:48;21.00;;;18.67;;
40623;SDS011;26325;48.594;11.650;2022-07-23T06:40:16;20.75;;;18.63;;
40623;SDS011;26325;48.594;11.650;2022-07-23T06:45:07;23.75;;;21.17;;
40623;SDS011;26325;48.594;11.650;2022-07-23T06:47:33;23.58;;;19.95;;
40623;SDS011;26325;48.594;11.650;2022-07-23T06:52:24;22.33;;;19.83;;
40623;SDS011;26325;48.594;11.650;2022-07-23T06:54:53;22.88;;;18.88;;
40623;SDS011;26325;48.594;11.650;2022-07-23T06:57:19;24.20;;;20.83;;
40623;SDS011;26325;48.594;11.650;2022-07-23T07:02:10;25.45;;;21.58;;
40623;SDS011;26325;48.594;11.650;2022-07-23T07:07:01;25.30;;;21.52;;
40623;SDS011;26325;48.594;11.650;2022-07-23T07:09:27;25.30;;;22.60;;
40623;SDS011;26325;48.594;11.650;2022-07-23T07:11:52;24.73;;;22.13;;
40623;SDS011;26325;48.594;11.650;2022-07-23T07:16:44;23.33;;;20.95;;
40623;SDS011;26325;48.594;11.650;2022-07-23T07:19:09;23.40;;;20.90;;
40623;SDS011;26325;48.594;11.650;2022-07-23T07:24:01;23.77;;;21.33;;
40623;SDS011;26325;48.594;11.650;2022-07-23T07:26:27;22.75;;;20.67;;
40623;SDS011;26325;48.594;11.650;2022-07-23T07:28:53;23.92;;;21.63;;
40623;SDS011;26325;48.594;11.650;2022-07-23T07:31:18;23.40;;;21.10;;
40623;SDS011;26325;48.594;11.650;2022-07-23T07:33:44;20.10;;;18.20;;
40623;SDS011;26325;48.594;11.650;2022-07-23T07:36:10;18.20;;;16.60;;
40623;SDS011;26325;48.594;11.650;2022-07-23T07:41:01;21.35;;;19.38;;
40623;SDS011;26325;48.594;11.650;2022-07-23T07:43:27;20.48;;;18.67;;
40623;SDS011;26325;48.594;11.650;2022-07-23T07:45:52;17.58;;;15.90;;
40623;SDS011;26325;48.594;11.650;2022-07-23T07:48:18;18.52;;;16.73;;
40623;SDS011;26325;48.594;11.650;2022-07-23T07:53:09;20.38;;;18.48;;
40623;SDS011;26325;48.594;11.650;2022-07-23T07:55:35;19.10;;;17.40;;
40623;SDS011;26325;48.594;11.650;2022-07-23T07:58:03;19.60;;;17.80;;
40623;SDS011;26325;48.594;11.650;2022-07-23T08:00:30;16.83;;;15.30;;
40623;SDS011;26325;48.594;11.650;2022-07-23T08:02:55;13.88;;;12.52;;
40623;SDS011;26325;48.594;11.650;2022-07-23T08:05:27;15.43;;;13.85;;
40623;SDS011;26325;48.594;11.650;2022-07-23T08:07:58;15.95;;;14.50;;
40623;SDS011;26325;48.594;11.650;2022-07-23T08:10:26;14.80;;;13.52;;
40623;SDS011;26325;48.594;11.650;2022-07-23T08:12:54;17.98;;;16.38;;
40623;SDS011;26325;48.594;11.650;2022-07-23T08:15:22;19.00;;;17.15;;
40623;SDS011;26325;48.594;11.650;2022-07-23T08:17:49;16.10;;;14.60;;
40623;SDS011;26325;48.594;11.650;2022-07-23T08:20:19;14.55;;;13.25;;
40623;SDS011;26325;48.594;11.650;2022-07-23T08:22:53;16.95;;;15.48;;
40623;SDS011;26325;48.594;11.650;2022-07-23T08:27:52;19.50;;;17.65;;
40623;SDS011;26325;48.594;11.650;2022-07-23T08:30:18;20.63;;;18.63;;
40623;SDS011;26325;48.594;11.650;2022-07-23T08:32:55;18.63;;;16.92;;
40623;SDS011;26325;48.594;11.650;2022-07-23T08:35:23;19.08;;;17.30;;
40623;SDS011;26325;48.594;11.650;2022-07-23T08:37:50;21.30;;;19.10;;
40623;SDS011;26325;48.594;11.650;2022-07-23T08:40:19;18.13;;;16.58;;
40623;SDS011;26325;48.594;11.650;2022-07-23T08:42:47;17.75;;;16.30;;
40623;SDS011;26325;48.594;11.650;2022-07-23T08:45:16;15.77;;;14.40;;
40623;SDS011;26325;48.594;11.650;2022-07-23T08:47:57;18.45;;;17.05;;
40623;SDS011;26325;48.594;11.650;2022-07-23T08:50:26;16.35;;;15.05;;
40623;SDS011;26325;48.594;11.650;2022-07-23T08:52:52;17.33;;;15.80;;
40623;SDS011;26325;48.594;11.650;2022-07-23T08:55:22;18.83;;;17.33;;
40623;SDS011;26325;48.594;11.650;2022-07-23T08:57:49;19.45;;;17.85;;
40623;SDS011;26325;48.594;11.650;2022-07-23T09:00:17;19.15;;;17.50;;
40623;SDS011;26325;48.594;11.650;2022-07-23T09:02:44;17.55;;;16.15;;
40623;SDS011;26325;48.594;11.650;2022-07-23T09:05:11;17.85;;;16.35;;
40623;SDS011;26325;48.594;11.650;2022-07-23T09:10:43;18.15;;;16.73;;
40623;SDS011;26325;48.594;11.650;2022-07-23T09:16:31;15.98;;;14.77;;
40623;SDS011;26325;48.594;11.650;2022-07-23T09:18:59;15.35;;;14.15;;
40623;SDS011;26325;48.594;11.650;2022-07-23T09:29:17;12.63;;;11.68;;
40623;SDS011;26325;48.594;11.650;2022-07-23T09:31:52;14.15;;;13.07;;
40623;SDS011;26325;48.594;11.650;2022-07-23T09:34:22;9.68;;;8.98;;
40623;SDS011;26325;48.594;11.650;2022-07-23T09:37:09;12.68;;;11.68;;
40623;SDS011;26325;48.594;11.650;2022-07-23T09:39:40;8.45;;;7.75;;
40623;SDS011;26325;48.594;11.650;2022-07-23T09:44:41;9.95;;;9.05;;
40623;SDS011;26325;48.594;11.650;2022-07-23T09:47:07;8.73;;;8.13;;
40623;SDS011;26325;48.594;11.650;2022-07-23T09:49:33;8.50;;;7.93;;
40623;SDS011;26325;48.594;11.650;2022-07-23T09:52:00;8.15;;;7.65;;
40623;SDS011;26325;48.594;11.650;2022-07-23T09:57:03;7.80;;;7.20;;
40623;SDS011;26325;48.594;11.650;2022-07-23T09:59:43;7.70;;;7.10;;
40623;SDS011;26325;48.594;11.650;2022-07-23T10:02:12;7.85;;;7.22;;
40623;SDS011;26325;48.594;11.650;2022-07-23T10:04:38;7.53;;;7.03;;
40623;SDS011;26325;48.594;11.650;2022-07-23T10:07:06;7.05;;;6.55;;
40623;SDS011;26325;48.594;11.650;2022-07-23T10:09:39;7.63;;;7.13;;
40623;SDS011;26325;48.594;11.650;2022-07-23T10:12:12;7.55;;;7.00;;
40623;SDS011;26325;48.594;11.650;2022-07-23T10:14:40;7.22;;;6.60;;
40623;SDS011;26325;48.594;11.650;2022-07-23T10:17:07;7.38;;;6.88;;
40623;SDS011;26325;48.594;11.650;2022-07-23T10:19:34;6.47;;;6.07;;
40623;SDS011;26325;48.594;11.650;2022-07-23T10:22:08;6.18;;;5.88;;
40623;SDS011;26325;48.594;11.650;2022-07-23T10:30:33;6.40;;;5.90;;
40623;SDS011;26325;48.594;11.650;2022-07-23T10:36:09;6.65;;;6.15;;
40623;SDS011;26325;48.594;11.650;2022-07-23T10:41:30;6.40;;;5.85;;
40623;SDS011;26325;48.594;11.650;2022-07-23T10:44:13;5.70;;;5.40;;
40623;SDS011;26325;48.594;11.650;2022-07-23T10:46:57;5.95;;;5.55;;
40623;SDS011;26325;48.594;11.650;2022-07-23T10:49:34;6.43;;;6.03;;
40623;SDS011;26325;48.594;11.650;2022-07-23T10:52:22;6.70;;;6.30;;
40623;SDS011;26325;48.594;11.650;2022-07-23T10:58:04;6.55;;;6.10;;
40623;SDS011;26325;48.594;11.650;2022-07-23T11:00:33;6.10;;;5.68;;
40623;SDS011;26325;48.594;11.650;2022-07-23T11:03:04;6.80;;;6.30;;
40623;SDS011;26325;48.594;11.650;2022-07-23T11:05:50;6.95;;;6.35;;
40623;SDS011;26325;48.594;11.650;2022-07-23T11:08:21;6.97;;;6.38;;
40623;SDS011;26325;48.594;11.650;2022-07-23T11:24:08;7.30;;;6.70;;
40623;SDS011;26325;48.594;11.650;2022-07-23T11:32:07;7.05;;;6.57;;
40623;SDS011;26325;48.594;11.650;2022-07-23T11:34:43;7.57;;;7.07;;
40623;SDS011;26325;48.594;11.650;2022-07-23T11:37:24;6.72;;;6.22;;
40623;SDS011;26325;48.594;11.650;2022-07-23T11:40:11;6.57;;;6.13;;
40623;SDS011;26325;48.594;11.650;2022-07-23T11:42:40;6.63;;;6.13;;
40623;SDS011;26325;48.594;11.650;2022-07-23T11:45:25;6.75;;;6.32;;
40623;SDS011;26325;48.594;11.650;2022-07-23T11:47:56;7.00;;;6.32;;
40623;SDS011;26325;48.594;11.650;2022-07-23T11:50:24;6.57;;;6.07;;
40623;SDS011;26325;48.594;11.650;2022-07-23T11:52:54;9.60;;;9.00;;
40623;SDS011;26325;48.594;11.650;2022-07-23T11:55:25;7.88;;;7.25;;
40623;SDS011;26325;48.594;11.650;2022-07-23T11:57:52;7.88;;;7.28;;
40623;SDS011;26325;48.594;11.650;2022-07-23T12:00:20;7.20;;;6.70;;
40623;SDS011;26325;48.594;11.650;2022-07-23T12:02:53;7.63;;;7.10;;
40623;SDS011;26325;48.594;11.650;2022-07-23T12:05:27;10.02;;;9.32;;
40623;SDS011;26325;48.594;11.650;2022-07-23T12:07:54;13.63;;;12.82;;
40623;SDS011;26325;48.594;11.650;2022-07-23T12:13:33;11.23;;;10.43;;
40623;SDS011;26325;48.594;11.650;2022-07-23T12:15:47;9.52;;;8.93;;
40623;SDS011;26325;48.594;11.650;2022-07-23T12:18:22;7.95;;;7.38;;
40623;SDS011;26325;48.594;11.650;2022-07-23T12:20:51;6.80;;;6.32;;
40623;SDS011;26325;48.594;11.650;2022-07-23T12:23:20;6.70;;;6.30;;
40623;SDS011;26325;48.594;11.650;2022-07-23T12:25:49;7.05;;;6.55;;
40623;SDS011;26325;48.594;11.650;2022-07-23T12:28:18;6.60;;;6.20;;
40623;SDS011;26325;48.594;11.650;2022-07-23T12:33:37;6.75;;;6.25;;
40623;SDS011;26325;48.594;11.650;2022-07-23T12:36:07;7.05;;;6.55;;
40623;SDS011;26325;48.594;11.650;2022-07-23T12:38:47;6.80;;;6.40;;
40623;SDS011;26325;48.594;11.650;2022-07-23T12:41:14;7.28;;;6.80;;
40623;SDS011;26325;48.594;11.650;2022-07-23T12:43:42;7.00;;;6.60;;
40623;SDS011;26325;48.594;11.650;2022-07-23T12:46:19;7.32;;;6.65;;
40623;SDS011;26325;48.594;11.650;2022-07-23T12:51:16;6.80;;;6.30;;
40623;SDS011;26325;48.594;11.650;2022-07-23T12:53:57;6.47;;;6.03;;
40623;SDS011;26325;48.594;11.650;2022-07-23T12:56:36;6.60;;;6.20;;
40623;SDS011;26325;48.594;11.650;2022-07-23T12:59:11;6.60;;;6.18;;
40623;SDS011;26325;48.594;11.650;2022-07-23T13:01:42;6.55;;;6.10;;
40623;SDS011;26325;48.594;11.650;2022-07-23T13:04:24;6.65;;;6.25;;
40623;SDS011;26325;48.594;11.650;2022-07-23T13:11:54;7.15;;;6.75;;
40623;SDS011;26325;48.594;11.650;2022-07-23T13:14:21;7.40;;;6.90;;
40623;SDS011;26325;48.594;11.650;2022-07-23T13:16:49;7.18;;;6.68;;
40623;SDS011;26325;48.594;11.650;2022-07-23T13:19:19;7.25;;;6.65;;
40623;SDS011;26325;48.594;11.650;2022-07-23T13:21:47;7.35;;;6.85;;
40623;SDS011;26325;48.594;11.650;2022-07-23T13:24:14;6.97;;;6.47;;
40623;SDS011;26325;48.594;11.650;2022-07-23T13:26:41;7.07;;;6.63;;
40623;SDS011;26325;48.594;11.650;2022-07-23T13:29:07;7.00;;;6.50;;
40623;SDS011;26325;48.594;11.650;2022-07-23T13:31:33;8.00;;;7.40;;
40623;SDS011;26325;48.594;11.650;2022-07-23T13:34:00;7.50;;;6.80;;
40623;SDS011;26325;48.594;11.650;2022-07-23T13:36:26;8.23;;;7.45;;
40623;SDS011;26325;48.594;11.650;2022-07-23T13:38:51;7.20;;;6.70;;
40623;SDS011;26325;48.594;11.650;2022-07-23T13:41:17;7.43;;;6.93;;
40623;SDS011;26325;48.594;11.650;2022-07-23T13:43:43;7.60;;;6.97;;
40623;SDS011;26325;48.594;11.650;2022-07-23T13:46:11;7.50;;;7.00;;
40623;SDS011;26325;48.594;11.650;2022-07-23T13:48:37;7.05;;;6.55;;
40623;SDS011;26325;48.594;11.650;2022-07-23T13:51:02;7.18;;;6.72;;
40623;SDS011;26325;48.594;11.650;2022-07-23T13:53:28;7.28;;;6.80;;
40623;SDS011;26325;48.594;11.650;2022-07-23T13:55:54;7.82;;;7.32;;
40623;SDS011;26325;48.594;11.650;2022-07-23T13:58:22;7.45;;;6.95;;
40623;SDS011;26325;48.594;11.650;2022-07-23T14:00:52;7.45;;;6.80;;
40623;SDS011;26325;48.594;11.650;2022-07-23T14:03:19;7.13;;;6.63;;
40623;SDS011;26325;48.594;11.650;2022-07-23T14:05:48;8.00;;;7.25;;
40623;SDS011;26325;48.594;11.650;2022-07-23T14:08:14;7.72;;;7.03;;
40623;SDS011;26325;48.594;11.650;2022-07-23T14:10:39;7.20;;;6.70;;
40623;SDS011;26325;48.594;11.650;2022-07-23T14:13:11;7.47;;;6.88;;
40623;SDS011;26325;48.594;11.650;2022-07-23T14:15:37;8.07;;;7.45;;
40623;SDS011;26325;48.594;11.650;2022-07-23T14:18:07;7.95;;;7.32;;
40623;SDS011;26325;48.594;11.650;2022-07-23T14:20:33;7.65;;;7.15;;
40623;SDS011;26325;48.594;11.650;2022-07-23T14:23:03;7.97;;;7.35;;
40623;SDS011;26325;48.594;11.650;2022-07-23T14:25:31;8.05;;;7.45;;
40623;SDS011;26325;48.594;11.650;2022-07-23T14:27:57;8.30;;;7.70;;
40623;SDS011;26325;48.594;11.650;2022-07-23T14:30:23;8.25;;;7.60;;
40623;SDS011;26325;48.594;11.650;2022-07-23T14:32:50;9.73;;;8.02;;
40623;SDS011;26325;48.594;11.650;2022-07-23T14:35:16;10.40;;;9.30;;
40623;SDS011;26325;48.594;11.650;2022-07-23T14:37:44;11.80;;;8.98;;
40623;SDS011;26325;48.594;11.650;2022-07-23T14:40:09;12.50;;;9.68;;
40623;SDS011;26325;48.594;11.650;2022-07-23T14:42:35;11.05;;;9.10;;
40623;SDS011;26325;48.594;11.650;2022-07-23T14:45:01;12.90;;;8.43;;
40623;SDS011;26325;48.594;11.650;2022-07-23T14:47:34;8.65;;;7.50;;
40623;SDS011;26325;48.594;11.650;2022-07-23T14:50:02;8.27;;;7.57;;
40623;SDS011;26325;48.594;11.650;2022-07-23T14:52:29;8.15;;;7.20;;
40623;SDS011;26325;48.594;11.650;2022-07-23T14:54:54;9.40;;;8.20;;
40623;SDS011;26325;48.594;11.650;2022-07-23T14:57:20;8.25;;;7.55;;
40623;SDS011;26325;48.594;11.650;2022-07-23T14:59:45;7.97;;;7.30;;
40623;SDS011;26325;48.594;11.650;2022-07-23T15:02:11;8.55;;;7.75;;
40623;SDS011;26325;48.594;11.650;2022-07-23T15:04:37;8.35;;;6.88;;
40623;SDS011;26325;48.594;11.650;2022-07-23T15:07:02;7.93;;;7.32;;
40623;SDS011;26325;48.594;11.650;2022-07-23T15:09:28;7.75;;;6.85;;
40623;SDS011;26325;48.594;11.650;2022-07-23T15:11:53;7.53;;;6.93;;
40623;SDS011;26325;48.594;11.650;2022-07-23T15:14:19;7.85;;;7.20;;
40623;SDS011;26325;48.594;11.650;2022-07-23T15:16:45;7.90;;;7.30;;
40623;SDS011;26325;48.594;11.650;2022-07-23T15:19:10;7.75;;;7.05;;
40623;SDS011;26325;48.594;11.650;2022-07-23T15:21:36;7.28;;;6.75;;
40623;SDS011;26325;48.594;11.650;2022-07-23T15:24:01;7.57;;;6.97;;
40623;SDS011;26325;48.594;11.650;2022-07-23T15:26:28;7.70;;;7.15;;
40623;SDS011;26325;48.594;11.650;2022-07-23T15:28:55;7.45;;;6.85;;
40623;SDS011;26325;48.594;11.650;2022-07-23T15:31:24;7.55;;;6.95;;
40623;SDS011;26325;48.594;11.650;2022-07-23T15:33:49;7.90;;;7.30;;
40623;SDS011;26325;48.594;11.650;2022-07-23T15:36:18;8.05;;;7.32;;
40623;SDS011;26325;48.594;11.650;2022-07-23T15:38:47;7.85;;;7.25;;
40623;SDS011;26325;48.594;11.650;2022-07-23T15:41:12;8.13;;;7.53;;
40623;SDS011;26325;48.594;11.650;2022-07-23T15:43:41;8.48;;;7.78;;
40623;SDS011;26325;48.594;11.650;2022-07-23T15:46:06;8.75;;;8.13;;
40623;SDS011;26325;48.594;11.650;2022-07-23T15:48:35;8.35;;;7.75;;
40623;SDS011;26325;48.594;11.650;2022-07-23T15:51:02;8.38;;;7.68;;
40623;SDS011;26325;48.594;11.650;2022-07-23T15:53:28;8.55;;;7.95;;
40623;SDS011;26325;48.594;11.650;2022-07-23T15:55:57;8.65;;;8.05;;
40623;SDS011;26325;48.594;11.650;2022-07-23T15:58:22;7.60;;;7.07;;
40623;SDS011;26325;48.594;11.650;2022-07-23T16:00:48;9.13;;;8.52;;
40623;SDS011;26325;48.594;11.650;2022-07-23T16:03:14;8.75;;;8.05;;
40623;SDS011;26325;48.594;11.650;2022-07-23T16:05:42;9.23;;;8.50;;
40623;SDS011;26325;48.594;11.650;2022-07-23T16:08:08;8.98;;;8.38;;
40623;SDS011;26325;48.594;11.650;2022-07-23T16:10:36;9.50;;;8.80;;
40623;SDS011;26325;48.594;11.650;2022-07-23T16:13:02;9.25;;;8.55;;
40623;SDS011;26325;48.594;11.650;2022-07-23T16:15:27;9.05;;;8.30;;
40623;SDS011;26325;48.594;11.650;2022-07-23T16:17:55;9.50;;;8.80;;
40623;SDS011;26325;48.594;11.650;2022-07-23T16:20:21;9.25;;;8.48;;
40623;SDS011;26325;48.594;11.650;2022-07-23T16:22:49;9.63;;;8.93;;
40623;SDS011;26325;48.594;11.650;2022-07-23T16:25:15;9.07;;;8.40;;
40623;SDS011;26325;48.594;11.650;2022-07-23T16:27:41;9.15;;;8.45;;
40623;SDS011;26325;48.594;11.650;2022-07-23T16:30:09;8.95;;;8.35;;
40623;SDS011;26325;48.594;11.650;2022-07-23T16:32:41;9.60;;;8.73;;
40623;SDS011;26325;48.594;11.650;2022-07-23T16:35:07;10.25;;;9.52;;
40623;SDS011;26325;48.594;11.650;2022-07-23T16:37:35;9.55;;;8.75;;
40623;SDS011;26325;48.594;11.650;2022-07-23T16:40:03;9.98;;;9.25;;
40623;SDS011;26325;48.594;11.650;2022-07-23T16:42:31;9.52;;;8.80;;
40623;SDS011;26325;48.594;11.650;2022-07-23T16:44:56;9.80;;;9.13;;
40623;SDS011;26325;48.594;11.650;2022-07-23T16:47:22;10.40;;;9.65;;
40623;SDS011;26325;48.594;11.650;2022-07-23T16:49:48;10.65;;;9.80;;
40623;SDS011;26325;48.594;11.650;2022-07-23T16:52:14;9.75;;;9.10;;
40623;SDS011;26325;48.594;11.650;2022-07-23T16:54:39;10.77;;;9.98;;
40623;SDS011;26325;48.594;11.650;2022-07-23T16:57:05;10.25;;;9.55;;
40623;SDS011;26325;48.594;11.650;2022-07-23T16:59:31;10.65;;;9.85;;
40623;SDS011;26325;48.594;11.650;2022-07-23T17:01:56;10.88;;;10.07;;
40623;SDS011;26325;48.594;11.650;2022-07-23T17:04:22;9.65;;;8.95;;
40623;SDS011;26325;48.594;11.650;2022-07-23T17:06:48;10.27;;;9.50;;
40623;SDS011;26325;48.594;11.650;2022-07-23T17:09:13;9.77;;;8.98;;
40623;SDS011;26325;48.594;11.650;2022-07-23T17:11:40;10.20;;;9.50;;
40623;SDS011;26325;48.594;11.650;2022-07-23T17:14:06;10.30;;;9.40;;
40623;SDS011;26325;48.594;11.650;2022-07-23T17:16:33;10.27;;;9.50;;
40623;SDS011;26325;48.594;11.650;2022-07-23T17:19:02;10.25;;;9.43;;
40623;SDS011;26325;48.594;11.650;2022-07-23T17:21:31;9.93;;;9.23;;
40623;SDS011;26325;48.594;11.650;2022-07-23T17:23:57;10.48;;;9.68;;
40623;SDS011;26325;48.594;11.650;2022-07-23T17:26:23;10.38;;;9.65;;
40623;SDS011;26325;48.594;11.650;2022-07-23T17:28:48;10.48;;;9.68;;
40623;SDS011;26325;48.594;11.650;2022-07-23T17:31:14;9.77;;;9.07;;
40623;SDS011;26325;48.594;11.650;2022-07-23T17:33:39;9.52;;;8.93;;
40623;SDS011;26325;48.594;11.650;2022-07-23T17:36:05;10.18;;;9.45;;
40623;SDS011;26325;48.594;11.650;2022-07-23T17:38:34;10.15;;;9.55;;
40623;SDS011;26325;48.594;11.650;2022-07-23T17:41:00;10.50;;;9.68;;
40623;SDS011;26325;48.594;11.650;2022-07-23T17:43:25;10.40;;;9.60;;
40623;SDS011;26325;48.594;11.650;2022-07-23T17:45:51;10.88;;;10.05;;
40623;SDS011;26325;48.594;11.650;2022-07-23T17:48:17;10.32;;;9.43;;
40623;SDS011;26325;48.594;11.650;2022-07-23T17:50:42;9.68;;;9.00;;
40623;SDS011;26325;48.594;11.650;2022-07-23T17:53:08;10.35;;;9.55;;
40623;SDS011;26325;48.594;11.650;2022-07-23T17:55:34;10.40;;;9.70;;
40623;SDS011;26325;48.594;11.650;2022-07-23T17:57:59;10.20;;;9.50;;
40623;SDS011;26325;48.594;11.650;2022-07-23T18:00:33;10.23;;;9.52;;
40623;SDS011;26325;48.594;11.650;2022-07-23T18:03:00;10.02;;;9.35;;
40623;SDS011;26325;48.594;11.650;2022-07-23T18:05:27;9.65;;;8.95;;